메인 페이지
METAR-TAF:

METAR-TAF

공항 :

라르나카 국제공항

라르나카, 키프로스

위도: 34-53N, 경도: 033-38E, 고도: 2m

현재 날씨관측

예보는 27분 전, 16:30시(UTC)에 발표되었습니다.
남남서3kt
온도 26°C
습도 61%
기압 1012 hPa
시정 10km 이상
1500m 미만 상공 구름 및 적란운 없음

METAR: LCLK 191630Z 21003KT CAVOK 26/18 Q1012 NOSIG

시각: 19:57 (16:57 UTC)

예보

예보는 5 시간 27분 전, 11:30시(UTC)에 발표되었습니다.
예보 대상 시간: 19일 12시부터 20일 12시까지 (UTC)
남남서10kt
시정: 9000m
고도 2500ft 상공 구름 조금
확률 30%
19일 12시부터 20일 12시까지 (UTC)
시정: 5000m
황사
확률 40% :
일시적
19일 12시부터 19일 15시까지 (UTC)
고도 3500ft 상공 구름 조금, 적란운.
전환 중
19일 16시부터 19일 19시까지 (UTC)
북북서7kt
전환 중
20일 09시부터 20일 12시까지 (UTC)
남남서10kt

TAF: LCLK 191130Z 1912/2012 20010KT 9000 FEW025 PROB30 1912/2012 5000 DU PROB40 TEMPO 1912/1915 FEW035CB BECMG 1916/1919 33007KT BECMG 2009/2012 20010KT

4,000개 이상의 공항 관측 자료 및 예보 (METAR 및 TAF 보고).

지도상에서 검색 가능한 기상관측소가 노란 점과 빨간 점으로 표시되어 있습니다.

기상관측소 명을 보려면 표시 위로 마우스를 이동하세요.

날씨 관측과 예보를 보려면 클릭하세요.

지도 변경 : 확대하려면 엑스 표시가 있는 녹색 버튼, 축소하려면 빼기 표시가 있는 녹색 버튼, 다음 페이지의 지도를 보려면 녹색 화살표를 클릭하세요.


METAR-TAF: